sensor_id;sensor_type;location;lat;lon;timestamp;pressure;altitude;pressure_sealevel;temperature;humidity
20889;BME280;10604;51.976;7.594;2022-08-19T00:00:07;100568.00;;;32.28;38.11
20889;BME280;10604;51.976;7.594;2022-08-19T00:02:34;100562.47;;;32.22;38.97
20889;BME280;10604;51.976;7.594;2022-08-19T00:04:59;100573.47;;;31.84;39.54
20889;BME280;10604;51.976;7.594;2022-08-19T00:07:25;100575.56;;;31.97;39.11
20889;BME280;10604;51.976;7.594;2022-08-19T00:09:50;100567.72;;;32.09;38.79
20889;BME280;10604;51.976;7.594;2022-08-19T00:12:16;100569.34;;;31.88;38.79
20889;BME280;10604;51.976;7.594;2022-08-19T00:14:41;100565.94;;;32.01;38.58
20889;BME280;10604;51.976;7.594;2022-08-19T00:17:08;100569.25;;;31.97;38.68
20889;BME280;10604;51.976;7.594;2022-08-19T00:19:35;100566.22;;;32.06;38.89
20889;BME280;10604;51.976;7.594;2022-08-19T00:22:01;100575.56;;;31.97;39.06
20889;BME280;10604;51.976;7.594;2022-08-19T00:24:28;100583.34;;;31.85;39.18
20889;BME280;10604;51.976;7.594;2022-08-19T00:26:54;100590.41;;;31.80;38.97
20889;BME280;10604;51.976;7.594;2022-08-19T00:29:21;100583.34;;;31.71;39.54
20889;BME280;10604;51.976;7.594;2022-08-19T00:31:46;100584.13;;;31.57;39.72
20889;BME280;10604;51.976;7.594;2022-08-19T00:34:13;100580.75;;;31.55;39.57
20889;BME280;10604;51.976;7.594;2022-08-19T00:36:42;100572.59;;;31.55;39.93
20889;BME280;10604;51.976;7.594;2022-08-19T00:39:09;100573.63;;;31.54;39.55
20889;BME280;10604;51.976;7.594;2022-08-19T00:41:35;100572.66;;;31.46;39.90
20889;BME280;10604;51.976;7.594;2022-08-19T00:44:04;100574.59;;;31.61;39.47
20889;BME280;10604;51.976;7.594;2022-08-19T00:46:30;100565.88;;;31.57;39.29
20889;BME280;10604;51.976;7.594;2022-08-19T00:48:57;100565.59;;;31.52;40.27
20889;BME280;10604;51.976;7.594;2022-08-19T00:51:25;100567.53;;;31.81;39.45
20889;BME280;10604;51.976;7.594;2022-08-19T00:53:53;100568.94;;;31.77;39.57
20889;BME280;10604;51.976;7.594;2022-08-19T00:56:20;100569.34;;;31.74;39.63
20889;BME280;10604;51.976;7.594;2022-08-19T00:58:45;100562.34;;;31.86;39.10
20889;BME280;10604;51.976;7.594;2022-08-19T01:01:11;100559.72;;;31.78;39.07
20889;BME280;10604;51.976;7.594;2022-08-19T01:03:37;100557.66;;;31.80;38.95
20889;BME280;10604;51.976;7.594;2022-08-19T01:06:02;100561.41;;;31.79;39.42
20889;BME280;10604;51.976;7.594;2022-08-19T01:08:28;100547.78;;;31.41;39.37
20889;BME280;10604;51.976;7.594;2022-08-19T01:10:56;100552.25;;;31.57;39.36
20889;BME280;10604;51.976;7.594;2022-08-19T01:13:24;100556.09;;;31.33;39.55
20889;BME280;10604;51.976;7.594;2022-08-19T01:16:03;100550.25;;;31.36;39.61
20889;BME280;10604;51.976;7.594;2022-08-19T01:18:29;100540.09;;;31.30;39.81
20889;BME280;10604;51.976;7.594;2022-08-19T01:20:58;100548.03;;;31.17;39.82
20889;BME280;10604;51.976;7.594;2022-08-19T01:23:26;100546.06;;;31.11;39.82
20889;BME280;10604;51.976;7.594;2022-08-19T01:26:16;100553.72;;;31.30;39.62
20889;BME280;10604;51.976;7.594;2022-08-19T01:28:44;100544.69;;;31.30;39.42
20889;BME280;10604;51.976;7.594;2022-08-19T01:31:16;100547.38;;;31.15;39.86
20889;BME280;10604;51.976;7.594;2022-08-19T01:33:43;100547.44;;;31.44;39.49
20889;BME280;10604;51.976;7.594;2022-08-19T01:36:16;100553.09;;;31.58;39.01
20889;BME280;10604;51.976;7.594;2022-08-19T01:38:47;100556.34;;;31.24;39.37
20889;BME280;10604;51.976;7.594;2022-08-19T01:41:13;100552.69;;;31.31;39.47
20889;BME280;10604;51.976;7.594;2022-08-19T01:43:39;100544.69;;;31.30;39.56
20889;BME280;10604;51.976;7.594;2022-08-19T01:46:05;100546.84;;;31.34;39.53
20889;BME280;10604;51.976;7.594;2022-08-19T01:48:36;100551.34;;;31.27;39.42
20889;BME280;10604;51.976;7.594;2022-08-19T01:51:03;100549.56;;;31.72;38.59
20889;BME280;10604;51.976;7.594;2022-08-19T01:53:28;100553.41;;;31.63;38.81
20889;BME280;10604;51.976;7.594;2022-08-19T01:55:54;100555.91;;;31.49;38.72
20889;BME280;10604;51.976;7.594;2022-08-19T01:58:23;100552.16;;;31.50;39.15
20889;BME280;10604;51.976;7.594;2022-08-19T02:00:50;100549.13;;;31.45;38.75
20889;BME280;10604;51.976;7.594;2022-08-19T02:03:16;100552.28;;;31.34;38.79
20889;BME280;10604;51.976;7.594;2022-08-19T02:05:43;100554.88;;;31.13;39.33
20889;BME280;10604;51.976;7.594;2022-08-19T02:08:10;100552.34;;;30.89;39.83
20889;BME280;10604;51.976;7.594;2022-08-19T02:10:39;100557.53;;;31.21;39.20
20889;BME280;10604;51.976;7.594;2022-08-19T02:13:06;100549.16;;;31.00;39.41
20889;BME280;10604;51.976;7.594;2022-08-19T02:15:31;100542.94;;;30.91;39.73
20889;BME280;10604;51.976;7.594;2022-08-19T02:17:57;100537.69;;;31.12;39.19
20889;BME280;10604;51.976;7.594;2022-08-19T02:20:22;100536.56;;;30.99;39.82
20889;BME280;10604;51.976;7.594;2022-08-19T02:22:47;100531.09;;;31.07;39.55
20889;BME280;10604;51.976;7.594;2022-08-19T02:25:14;100534.03;;;31.20;39.39
20889;BME280;10604;51.976;7.594;2022-08-19T02:27:40;100525.09;;;31.11;39.58
20889;BME280;10604;51.976;7.594;2022-08-19T02:30:08;100523.97;;;31.21;39.16
20889;BME280;10604;51.976;7.594;2022-08-19T02:32:34;100530.66;;;31.18;39.58
20889;BME280;10604;51.976;7.594;2022-08-19T02:34:59;100522.28;;;31.20;39.13
20889;BME280;10604;51.976;7.594;2022-08-19T02:37:25;100528.97;;;31.17;39.02
20889;BME280;10604;51.976;7.594;2022-08-19T02:40:10;100531.41;;;31.12;39.46
20889;BME280;10604;51.976;7.594;2022-08-19T02:42:35;100535.25;;;31.18;39.35
20889;BME280;10604;51.976;7.594;2022-08-19T02:45:01;100540.59;;;31.11;39.45
20889;BME280;10604;51.976;7.594;2022-08-19T02:47:26;100550.66;;;31.10;39.59
20889;BME280;10604;51.976;7.594;2022-08-19T02:49:51;100549.81;;;31.10;39.35
20889;BME280;10604;51.976;7.594;2022-08-19T02:52:17;100545.22;;;31.10;39.49
20889;BME280;10604;51.976;7.594;2022-08-19T02:54:42;100532.47;;;31.03;39.82
20889;BME280;10604;51.976;7.594;2022-08-19T02:57:09;100524.69;;;30.92;39.53
20889;BME280;10604;51.976;7.594;2022-08-19T02:59:34;100525.56;;;30.92;39.90
20889;BME280;10604;51.976;7.594;2022-08-19T03:02:00;100521.47;;;30.73;40.43
20889;BME280;10604;51.976;7.594;2022-08-19T03:04:25;100516.97;;;30.81;40.03
20889;BME280;10604;51.976;7.594;2022-08-19T03:06:51;100524.59;;;30.62;40.35
20889;BME280;10604;51.976;7.594;2022-08-19T03:09:19;100517.19;;;30.94;40.06
20889;BME280;10604;51.976;7.594;2022-08-19T03:11:45;100519.56;;;30.97;39.93
20889;BME280;10604;51.976;7.594;2022-08-19T03:14:12;100518.84;;;31.03;39.75
20889;BME280;10604;51.976;7.594;2022-08-19T03:16:47;100520.22;;;30.99;39.66
20889;BME280;10604;51.976;7.594;2022-08-19T03:19:15;100528.94;;;30.94;39.82
20889;BME280;10604;51.976;7.594;2022-08-19T03:21:42;100537.38;;;30.85;39.83
20889;BME280;10604;51.976;7.594;2022-08-19T03:24:09;100535.09;;;30.73;40.15
20889;BME280;10604;51.976;7.594;2022-08-19T03:26:38;100539.97;;;30.78;40.10
20889;BME280;10604;51.976;7.594;2022-08-19T03:29:04;100540.94;;;30.62;40.37
20889;BME280;10604;51.976;7.594;2022-08-19T03:31:30;100537.81;;;30.73;39.87
20889;BME280;10604;51.976;7.594;2022-08-19T03:33:56;100542.28;;;30.66;40.35
20889;BME280;10604;51.976;7.594;2022-08-19T03:36:24;100538.88;;;30.87;40.02
20889;BME280;10604;51.976;7.594;2022-08-19T03:38:52;100551.91;;;30.77;40.10
20889;BME280;10604;51.976;7.594;2022-08-19T03:41:22;100536.06;;;30.81;39.72
20889;BME280;10604;51.976;7.594;2022-08-19T03:43:48;100541.22;;;30.76;39.91
20889;BME280;10604;51.976;7.594;2022-08-19T03:46:19;100525.72;;;30.76;39.84
20889;BME280;10604;51.976;7.594;2022-08-19T03:48:47;100525.44;;;30.86;39.84
20889;BME280;10604;51.976;7.594;2022-08-19T03:51:18;100536.97;;;30.73;39.95
20889;BME280;10604;51.976;7.594;2022-08-19T03:53:45;100547.63;;;30.83;39.78
20889;BME280;10604;51.976;7.594;2022-08-19T03:56:11;100552.69;;;30.86;39.82
20889;BME280;10604;51.976;7.594;2022-08-19T03:58:37;100540.41;;;30.90;39.98
20889;BME280;10604;51.976;7.594;2022-08-19T04:01:08;100543.97;;;30.67;40.30
20889;BME280;10604;51.976;7.594;2022-08-19T04:03:33;100542.00;;;30.61;40.21
20889;BME280;10604;51.976;7.594;2022-08-19T04:06:10;100546.38;;;30.62;40.43
20889;BME280;10604;51.976;7.594;2022-08-19T04:08:36;100550.41;;;30.74;39.79
20889;BME280;10604;51.976;7.594;2022-08-19T04:11:01;100550.03;;;30.78;40.02
20889;BME280;10604;51.976;7.594;2022-08-19T04:13:31;100549.06;;;30.70;40.20
20889;BME280;10604;51.976;7.594;2022-08-19T04:15:56;100551.53;;;30.80;39.90
20889;BME280;10604;51.976;7.594;2022-08-19T04:18:22;100553.19;;;30.66;39.99
20889;BME280;10604;51.976;7.594;2022-08-19T04:20:47;100553.78;;;30.77;39.72
20889;BME280;10604;51.976;7.594;2022-08-19T04:23:14;100547.47;;;30.53;40.33
20889;BME280;10604;51.976;7.594;2022-08-19T04:25:42;100546.78;;;30.82;39.63
20889;BME280;10604;51.976;7.594;2022-08-19T04:28:09;100550.88;;;30.78;39.76
20889;BME280;10604;51.976;7.594;2022-08-19T04:30:42;100544.81;;;30.91;39.61
20889;BME280;10604;51.976;7.594;2022-08-19T04:33:09;100548.47;;;30.60;40.29
20889;BME280;10604;51.976;7.594;2022-08-19T04:35:39;100547.47;;;30.53;40.29
20889;BME280;10604;51.976;7.594;2022-08-19T04:38:05;100560.00;;;30.62;40.08
20889;BME280;10604;51.976;7.594;2022-08-19T04:40:31;100565.41;;;30.70;39.83
20889;BME280;10604;51.976;7.594;2022-08-19T04:43:33;100549.56;;;30.97;39.70
20889;BME280;10604;51.976;7.594;2022-08-19T04:46:08;100544.69;;;30.84;39.62
20889;BME280;10604;51.976;7.594;2022-08-19T04:48:36;100543.25;;;30.96;39.44
20889;BME280;10604;51.976;7.594;2022-08-19T04:51:06;100555.34;;;30.94;39.56
20889;BME280;10604;51.976;7.594;2022-08-19T04:53:34;100556.16;;;30.80;40.04
20889;BME280;10604;51.976;7.594;2022-08-19T04:56:05;100553.66;;;30.93;39.63
20889;BME280;10604;51.976;7.594;2022-08-19T04:58:32;100548.09;;;30.86;39.87
20889;BME280;10604;51.976;7.594;2022-08-19T05:00:57;100556.38;;;30.93;39.64
20889;BME280;10604;51.976;7.594;2022-08-19T05:03:25;100556.19;;;30.71;40.22
20889;BME280;10604;51.976;7.594;2022-08-19T05:05:51;100566.03;;;30.81;39.96
20889;BME280;10604;51.976;7.594;2022-08-19T05:08:19;100571.09;;;30.84;39.93
20889;BME280;10604;51.976;7.594;2022-08-19T05:10:50;100567.81;;;31.19;39.62
20889;BME280;10604;51.976;7.594;2022-08-19T05:13:17;100580.47;;;31.12;39.70
20889;BME280;10604;51.976;7.594;2022-08-19T05:15:43;100580.44;;;30.66;40.33
20889;BME280;10604;51.976;7.594;2022-08-19T05:18:09;100578.84;;;30.95;39.99
20889;BME280;10604;51.976;7.594;2022-08-19T05:20:53;100581.00;;;31.07;39.72
20889;BME280;10604;51.976;7.594;2022-08-19T05:23:37;100583.34;;;30.88;40.43
20889;BME280;10604;51.976;7.594;2022-08-19T05:26:03;100584.19;;;31.34;39.53
20889;BME280;10604;51.976;7.594;2022-08-19T05:28:29;100586.94;;;31.48;39.93
20889;BME280;10604;51.976;7.594;2022-08-19T05:30:55;100585.03;;;31.34;40.05
20889;BME280;10604;51.976;7.594;2022-08-19T05:33:21;100588.16;;;31.69;39.83
20889;BME280;10604;51.976;7.594;2022-08-19T05:35:47;100587.75;;;31.72;39.46
20889;BME280;10604;51.976;7.594;2022-08-19T05:38:15;100583.53;;;31.84;39.22
20889;BME280;10604;51.976;7.594;2022-08-19T05:40:41;100590.69;;;32.00;39.22
20889;BME280;10604;51.976;7.594;2022-08-19T05:43:08;100584.38;;;32.43;38.39
20889;BME280;10604;51.976;7.594;2022-08-19T05:45:39;100578.31;;;32.48;38.50
20889;BME280;10604;51.976;7.594;2022-08-19T05:48:05;100582.44;;;32.73;37.76
20889;BME280;10604;51.976;7.594;2022-08-19T05:50:30;100578.59;;;32.89;37.34
20889;BME280;10604;51.976;7.594;2022-08-19T05:52:56;100577.03;;;33.01;37.97
20889;BME280;10604;51.976;7.594;2022-08-19T05:55:21;100575.16;;;32.80;37.37
20889;BME280;10604;51.976;7.594;2022-08-19T05:57:48;100570.72;;;32.79;37.54
20889;BME280;10604;51.976;7.594;2022-08-19T06:00:13;100571.56;;;32.80;37.53
20889;BME280;10604;51.976;7.594;2022-08-19T06:02:39;100566.53;;;32.83;37.99
20889;BME280;10604;51.976;7.594;2022-08-19T06:05:06;100574.78;;;32.69;38.12
20889;BME280;10604;51.976;7.594;2022-08-19T06:07:32;100570.19;;;32.90;37.66
20889;BME280;10604;51.976;7.594;2022-08-19T06:09:58;100570.47;;;32.95;37.71
20889;BME280;10604;51.976;7.594;2022-08-19T06:12:23;100568.34;;;33.40;36.80
20889;BME280;10604;51.976;7.594;2022-08-19T06:14:53;100576.81;;;33.45;37.83
20889;BME280;10604;51.976;7.594;2022-08-19T06:17:20;100573.06;;;33.46;38.35
20889;BME280;10604;51.976;7.594;2022-08-19T06:19:47;100582.50;;;34.06;36.80
20889;BME280;10604;51.976;7.594;2022-08-19T06:22:15;100578.31;;;33.75;36.88
20889;BME280;10604;51.976;7.594;2022-08-19T06:24:41;100571.00;;;33.83;37.53
20889;BME280;10604;51.976;7.594;2022-08-19T06:27:06;100583.16;;;34.08;37.42
20889;BME280;10604;51.976;7.594;2022-08-19T06:29:32;100575.69;;;34.23;36.68
20889;BME280;10604;51.976;7.594;2022-08-19T06:31:59;100576.94;;;34.27;36.86
20889;BME280;10604;51.976;7.594;2022-08-19T06:34:28;100575.81;;;34.63;37.09
20889;BME280;10604;51.976;7.594;2022-08-19T06:36:55;100574.56;;;34.58;37.19
20889;BME280;10604;51.976;7.594;2022-08-19T06:39:26;100575.31;;;34.39;36.88
20889;BME280;10604;51.976;7.594;2022-08-19T06:41:56;100583.44;;;34.67;37.01
20889;BME280;10604;51.976;7.594;2022-08-19T06:44:23;100572.84;;;34.57;37.33
20889;BME280;10604;51.976;7.594;2022-08-19T06:46:50;100571.94;;;34.37;37.11
20889;BME280;10604;51.976;7.594;2022-08-19T06:49:16;100570.56;;;34.20;37.65
20889;BME280;10604;51.976;7.594;2022-08-19T06:51:44;100575.22;;;33.57;38.46
20889;BME280;10604;51.976;7.594;2022-08-19T06:54:12;100570.50;;;34.07;38.27
20889;BME280;10604;51.976;7.594;2022-08-19T06:56:38;100567.38;;;34.57;37.25
20889;BME280;10604;51.976;7.594;2022-08-19T06:59:07;100552.97;;;34.42;37.20
20889;BME280;10604;51.976;7.594;2022-08-19T07:01:53;100556.44;;;34.71;37.04
20889;BME280;10604;51.976;7.594;2022-08-19T07:04:25;100566.91;;;34.54;36.68
20889;BME280;10604;51.976;7.594;2022-08-19T07:07:13;100567.31;;;35.45;35.94
20889;BME280;10604;51.976;7.594;2022-08-19T07:09:41;100572.09;;;34.77;36.65
20889;BME280;10604;51.976;7.594;2022-08-19T07:12:10;100564.56;;;35.58;36.14
20889;BME280;10604;51.976;7.594;2022-08-19T07:14:36;100576.69;;;36.15;34.92
20889;BME280;10604;51.976;7.594;2022-08-19T07:17:05;100571.56;;;36.38;34.65
20889;BME280;10604;51.976;7.594;2022-08-19T07:19:31;100578.91;;;35.86;35.41
20889;BME280;10604;51.976;7.594;2022-08-19T07:21:57;100574.72;;;35.38;35.53
20889;BME280;10604;51.976;7.594;2022-08-19T07:24:25;100574.59;;;36.03;34.77
20889;BME280;10604;51.976;7.594;2022-08-19T07:26:52;100578.69;;;35.55;35.48
20889;BME280;10604;51.976;7.594;2022-08-19T07:29:19;100578.38;;;34.71;37.13
20889;BME280;10604;51.976;7.594;2022-08-19T07:31:49;100576.38;;;35.39;35.95
20889;BME280;10604;51.976;7.594;2022-08-19T07:34:15;100579.34;;;35.44;35.93
20889;BME280;10604;51.976;7.594;2022-08-19T07:36:42;100583.13;;;35.82;35.49
20889;BME280;10604;51.976;7.594;2022-08-19T07:39:15;100588.53;;;36.22;34.84
20889;BME280;10604;51.976;7.594;2022-08-19T07:41:41;100592.22;;;36.47;34.24
20889;BME280;10604;51.976;7.594;2022-08-19T07:44:08;100601.50;;;36.59;34.47
20889;BME280;10604;51.976;7.594;2022-08-19T07:46:37;100598.13;;;36.57;34.51
20889;BME280;10604;51.976;7.594;2022-08-19T07:49:03;100608.47;;;37.00;33.66
20889;BME280;10604;51.976;7.594;2022-08-19T07:51:28;100607.09;;;37.22;32.66
20889;BME280;10604;51.976;7.594;2022-08-19T07:53:55;100595.56;;;35.91;34.70
20889;BME280;10604;51.976;7.594;2022-08-19T07:56:22;100608.84;;;37.03;33.24
20889;BME280;10604;51.976;7.594;2022-08-19T07:58:49;100612.38;;;37.48;32.86
20889;BME280;10604;51.976;7.594;2022-08-19T08:01:18;100607.41;;;37.32;33.12
20889;BME280;10604;51.976;7.594;2022-08-19T08:03:44;100611.47;;;37.54;32.27
20889;BME280;10604;51.976;7.594;2022-08-19T08:06:28;100612.59;;;37.22;32.81
20889;BME280;10604;51.976;7.594;2022-08-19T08:09:16;100615.00;;;36.67;33.40
20889;BME280;10604;51.976;7.594;2022-08-19T08:11:51;100618.47;;;36.49;33.99
20889;BME280;10604;51.976;7.594;2022-08-19T08:14:21;100619.81;;;37.16;32.70
20889;BME280;10604;51.976;7.594;2022-08-19T08:16:48;100624.16;;;38.05;32.88
20889;BME280;10604;51.976;7.594;2022-08-19T08:19:17;100627.41;;;37.95;31.94
20889;BME280;10604;51.976;7.594;2022-08-19T08:21:44;100635.34;;;38.10;32.16
20889;BME280;10604;51.976;7.594;2022-08-19T08:24:10;100630.91;;;38.27;31.40
20889;BME280;10604;51.976;7.594;2022-08-19T08:26:36;100645.53;;;38.64;30.42
20889;BME280;10604;51.976;7.594;2022-08-19T08:29:01;100638.56;;;38.07;31.50
20889;BME280;10604;51.976;7.594;2022-08-19T08:31:27;100657.72;;;38.93;30.62
20889;BME280;10604;51.976;7.594;2022-08-19T08:33:53;100644.75;;;37.78;32.04
20889;BME280;10604;51.976;7.594;2022-08-19T08:36:19;100646.34;;;38.47;30.90
20889;BME280;10604;51.976;7.594;2022-08-19T08:38:45;100646.38;;;38.65;30.64
20889;BME280;10604;51.976;7.594;2022-08-19T08:43:54;100645.16;;;39.74;29.55
20889;BME280;10604;51.976;7.594;2022-08-19T08:49:36;100651.31;;;39.87;29.55
20889;BME280;10604;51.976;7.594;2022-08-19T08:52:12;100641.63;;;39.02;28.90
20889;BME280;10604;51.976;7.594;2022-08-19T08:54:44;100647.66;;;39.52;29.77
20889;BME280;10604;51.976;7.594;2022-08-19T08:57:15;100643.38;;;40.03;28.58
20889;BME280;10604;51.976;7.594;2022-08-19T08:59:46;100643.59;;;39.43;29.12
20889;BME280;10604;51.976;7.594;2022-08-19T09:02:16;100646.50;;;40.18;28.64
20889;BME280;10604;51.976;7.594;2022-08-19T09:04:42;100638.34;;;39.65;28.53
20889;BME280;10604;51.976;7.594;2022-08-19T09:07:25;100640.47;;;37.82;31.12
20889;BME280;10604;51.976;7.594;2022-08-19T09:10:02;100633.22;;;38.49;30.84
20889;BME280;10604;51.976;7.594;2022-08-19T09:15:28;100637.38;;;39.82;29.38
20889;BME280;10604;51.976;7.594;2022-08-19T09:17:59;100630.03;;;40.75;27.95
20889;BME280;10604;51.976;7.594;2022-08-19T09:20:27;100627.06;;;40.93;27.14
20889;BME280;10604;51.976;7.594;2022-08-19T09:22:53;100639.66;;;41.45;26.46
20889;BME280;10604;51.976;7.594;2022-08-19T09:25:21;100629.84;;;41.88;25.55
20889;BME280;10604;51.976;7.594;2022-08-19T09:27:49;100634.38;;;41.27;26.74
20889;BME280;10604;51.976;7.594;2022-08-19T09:30:19;100627.75;;;41.00;27.27
20889;BME280;10604;51.976;7.594;2022-08-19T09:32:47;100630.13;;;41.08;27.34
20889;BME280;10604;51.976;7.594;2022-08-19T09:35:14;100626.75;;;40.38;27.67
20889;BME280;10604;51.976;7.594;2022-08-19T09:37:40;100637.78;;;39.86;28.56
20889;BME280;10604;51.976;7.594;2022-08-19T09:40:06;100631.84;;;39.94;28.34
20889;BME280;10604;51.976;7.594;2022-08-19T09:42:32;100632.88;;;38.93;28.95
20889;BME280;10604;51.976;7.594;2022-08-19T09:44:59;100634.91;;;38.50;29.70
20889;BME280;10604;51.976;7.594;2022-08-19T09:47:24;100638.63;;;39.03;29.65
20889;BME280;10604;51.976;7.594;2022-08-19T09:49:50;100633.38;;;39.55;28.08
20889;BME280;10604;51.976;7.594;2022-08-19T09:52:16;100630.28;;;39.86;27.69
20889;BME280;10604;51.976;7.594;2022-08-19T09:54:41;100617.91;;;40.24;26.65
20889;BME280;10604;51.976;7.594;2022-08-19T09:57:07;100621.44;;;42.21;25.02
20889;BME280;10604;51.976;7.594;2022-08-19T09:59:33;100628.13;;;42.20;24.57
20889;BME280;10604;51.976;7.594;2022-08-19T10:01:59;100621.28;;;41.73;24.22
20889;BME280;10604;51.976;7.594;2022-08-19T10:04:24;100629.69;;;41.78;24.22
20889;BME280;10604;51.976;7.594;2022-08-19T10:07:10;100619.06;;;42.08;24.45
20889;BME280;10604;51.976;7.594;2022-08-19T10:09:36;100622.28;;;42.87;23.58
20889;BME280;10604;51.976;7.594;2022-08-19T10:12:03;100619.28;;;42.67;23.52
20889;BME280;10604;51.976;7.594;2022-08-19T10:14:29;100620.78;;;43.97;22.59
20889;BME280;10604;51.976;7.594;2022-08-19T10:16:55;100620.16;;;44.32;21.93
20889;BME280;10604;51.976;7.594;2022-08-19T10:19:21;100622.66;;;45.67;21.10
20889;BME280;10604;51.976;7.594;2022-08-19T10:21:47;100627.66;;;45.70;20.94
20889;BME280;10604;51.976;7.594;2022-08-19T10:24:12;100617.09;;;45.47;20.63
20889;BME280;10604;51.976;7.594;2022-08-19T10:26:39;100615.69;;;44.31;22.76
20889;BME280;10604;51.976;7.594;2022-08-19T10:29:10;100616.28;;;43.22;22.91
20889;BME280;10604;51.976;7.594;2022-08-19T10:31:36;100614.50;;;44.27;22.34
20889;BME280;10604;51.976;7.594;2022-08-19T10:34:02;100623.44;;;44.29;21.63
20889;BME280;10604;51.976;7.594;2022-08-19T10:36:31;100617.28;;;40.74;25.18
20889;BME280;10604;51.976;7.594;2022-08-19T10:39:00;100617.84;;;42.65;23.37
20889;BME280;10604;51.976;7.594;2022-08-19T10:41:29;100605.88;;;42.37;23.57
20889;BME280;10604;51.976;7.594;2022-08-19T10:43:58;100614.94;;;41.56;23.89
20889;BME280;10604;51.976;7.594;2022-08-19T10:46:25;100597.19;;;40.95;24.44
20889;BME280;10604;51.976;7.594;2022-08-19T10:48:52;100598.53;;;42.09;23.85
20889;BME280;10604;51.976;7.594;2022-08-19T10:51:19;100602.72;;;43.31;22.30
20889;BME280;10604;51.976;7.594;2022-08-19T10:54:03;100604.25;;;45.46;20.55
20889;BME280;10604;51.976;7.594;2022-08-19T10:56:29;100606.41;;;47.13;19.24
20889;BME280;10604;51.976;7.594;2022-08-19T10:59:14;100610.22;;;47.32;18.54
20889;BME280;10604;51.976;7.594;2022-08-19T11:01:42;100598.44;;;46.42;18.26
20889;BME280;10604;51.976;7.594;2022-08-19T11:04:07;100603.50;;;46.89;19.06
20889;BME280;10604;51.976;7.594;2022-08-19T11:06:40;100599.78;;;45.45;19.31
20889;BME280;10604;51.976;7.594;2022-08-19T11:09:07;100605.75;;;46.87;18.81
20889;BME280;10604;51.976;7.594;2022-08-19T11:11:34;100615.09;;;48.03;17.72
20889;BME280;10604;51.976;7.594;2022-08-19T11:14:11;100602.81;;;46.63;17.65
20889;BME280;10604;51.976;7.594;2022-08-19T11:16:37;100600.22;;;46.23;18.06
20889;BME280;10604;51.976;7.594;2022-08-19T11:19:06;100606.19;;;47.43;17.54
20889;BME280;10604;51.976;7.594;2022-08-19T11:21:35;100600.59;;;46.55;18.08
20889;BME280;10604;51.976;7.594;2022-08-19T11:24:05;100602.56;;;47.72;17.25
20889;BME280;10604;51.976;7.594;2022-08-19T11:26:33;100590.56;;;46.49;17.29
20889;BME280;10604;51.976;7.594;2022-08-19T11:28:59;100586.81;;;46.15;18.11
20889;BME280;10604;51.976;7.594;2022-08-19T11:31:31;100583.53;;;45.77;18.32
20889;BME280;10604;51.976;7.594;2022-08-19T11:33:58;100581.34;;;45.69;18.75
20889;BME280;10604;51.976;7.594;2022-08-19T11:36:25;100583.41;;;44.35;19.89
20889;BME280;10604;51.976;7.594;2022-08-19T11:38:51;100591.38;;;43.69;20.49
20889;BME280;10604;51.976;7.594;2022-08-19T11:41:18;100586.38;;;43.08;21.59
20889;BME280;10604;51.976;7.594;2022-08-19T11:43:44;100577.97;;;42.27;21.94
20889;BME280;10604;51.976;7.594;2022-08-19T11:46:12;100574.88;;;42.72;22.45
20889;BME280;10604;51.976;7.594;2022-08-19T11:48:38;100565.09;;;44.55;20.52
20889;BME280;10604;51.976;7.594;2022-08-19T11:51:06;100568.47;;;44.77;19.46
20889;BME280;10604;51.976;7.594;2022-08-19T11:53:33;100568.72;;;44.55;20.25
20889;BME280;10604;51.976;7.594;2022-08-19T11:55:59;100579.44;;;43.42;21.03
20889;BME280;10604;51.976;7.594;2022-08-19T11:58:25;100571.84;;;42.03;22.39
20889;BME280;10604;51.976;7.594;2022-08-19T12:00:51;100564.19;;;41.55;23.26
20889;BME280;10604;51.976;7.594;2022-08-19T12:03:17;100566.59;;;42.07;22.77
20889;BME280;10604;51.976;7.594;2022-08-19T12:05:47;100565.41;;;42.19;22.82
20889;BME280;10604;51.976;7.594;2022-08-19T12:08:13;100568.09;;;40.64;23.34
20889;BME280;10604;51.976;7.594;2022-08-19T12:10:39;100565.50;;;40.46;24.74
20889;BME280;10604;51.976;7.594;2022-08-19T12:13:06;100571.63;;;42.32;23.36
20889;BME280;10604;51.976;7.594;2022-08-19T12:15:37;100566.22;;;43.17;21.72
20889;BME280;10604;51.976;7.594;2022-08-19T12:18:07;100569.41;;;43.36;21.39
20889;BME280;10604;51.976;7.594;2022-08-19T12:20:37;100563.28;;;43.02;21.63
20889;BME280;10604;51.976;7.594;2022-08-19T12:23:04;100568.22;;;42.25;22.18
20889;BME280;10604;51.976;7.594;2022-08-19T12:25:30;100570.47;;;43.30;22.34
20889;BME280;10604;51.976;7.594;2022-08-19T12:27:56;100571.53;;;43.24;21.30
20889;BME280;10604;51.976;7.594;2022-08-19T12:30:21;100566.13;;;42.80;21.73
20889;BME280;10604;51.976;7.594;2022-08-19T12:32:47;100555.03;;;41.93;23.04
20889;BME280;10604;51.976;7.594;2022-08-19T12:35:12;100556.53;;;42.22;23.22
20889;BME280;10604;51.976;7.594;2022-08-19T12:37:39;100556.13;;;43.11;22.37
20889;BME280;10604;51.976;7.594;2022-08-19T12:40:10;100567.13;;;44.90;20.49
20889;BME280;10604;51.976;7.594;2022-08-19T12:42:38;100564.03;;;45.72;19.56
20889;BME280;10604;51.976;7.594;2022-08-19T12:45:07;100559.88;;;44.89;19.73
20889;BME280;10604;51.976;7.594;2022-08-19T12:47:32;100555.56;;;46.08;18.96
20889;BME280;10604;51.976;7.594;2022-08-19T12:49:58;100566.31;;;45.50;18.81
20889;BME280;10604;51.976;7.594;2022-08-19T12:52:25;100554.88;;;46.41;18.34
20889;BME280;10604;51.976;7.594;2022-08-19T12:54:54;100552.84;;;45.92;18.98
20889;BME280;10604;51.976;7.594;2022-08-19T12:57:19;100557.94;;;45.45;19.26
20889;BME280;10604;51.976;7.594;2022-08-19T12:59:45;100555.41;;;45.43;18.47
20889;BME280;10604;51.976;7.594;2022-08-19T13:02:10;100548.19;;;44.04;19.75